Meteopozuelo

Informes METAR próximos a MeteoPozuelo

 

LEVS - Cuatro Vientos (Madrid) España
Actualización: 23/06/2021 11:30
Despejado
Despejado
 Viento del N
Viento: N 6 km/h
Temperatura: 21°C
Punto de Rocío: 9°C
Humedad: 46%
Barómetro: 1019 hPa
Resumen: Despejado
Visibility: greater than 10 km
2021/06/23 09:30 LEVS 230930Z 01003KT CAVOK 21/09 Q1019
LEGT - Getafe (Madrid ) España
Actualización: 23/06/2021 11:30
Parcialmente nuboso
Parcialmente nuboso
 Viento del varies
Viento: varies 11 km/h
Temperatura: 20°C
Punto de Rocío: 10°C
Humedad: 53%
Barómetro: 1019 hPa
Clouds: Parcialmente nuboso
Visibility: 10 km
Cloud details: Parcialmente nuboso 1067 m
2021/06/23 09:30 LEGT 230930Z VRB06KT 9999 SCT035 20/10 Q1019
 
LEMD - Barajas (Madrid) España
Actualización: 23/06/2021 11:30
Parcialmente nuboso
Parcialmente nuboso
 Viento del NE
Viento: NE 11 km/h
Temperatura: 21°C
Punto de Rocío: 10°C
Humedad: 50%
Barómetro: 1019 hPa
Clouds: Parcialmente nuboso
Visibility: 10 km
Cloud details: Parcialmente nuboso 1067 m
2021/06/23 09:30 LEMD 230930Z 05006KT 010V110 9999 SCT035 21/10 Q1019 NOSIG
LETO - Torrejon de Ardoz (Madrid) España
Actualización: 23/06/2021 11:30
Parcialmente nuboso
Parcialmente nuboso
 Viento del NE
Viento: NE 13 km/h
Temperatura: 19°C
Punto de Rocío: 8°C
Humedad: 49%
Barómetro: 1019 hPa
Clouds: Parcialmente nuboso
Visibility: 10 km
Cloud details: Parcialmente nuboso 1219 m
2021/06/23 09:30 LETO 230930Z 04007KT 340V100 9999 SCT040 19/08 Q1019 NOSIG
 
LECV - Colmenar Viejo (Madrid)
Actualización: 23/06/2021 11:30
Muy nuboso
Muy nuboso
 Viento del varies
Viento: varies 2 km/h
Temperatura: 17°C
Punto de Rocío: 8°C
Humedad: 56%
Barómetro: 1020 hPa
Clouds: Muy nuboso
Visibility: 10 km
Cloud details: Few Clouds 762 m
Muy nuboso 914 m
2021/06/23 09:30 LECV 230930Z VRB01KT 9999 FEW025 BKN030 17/08 Q1020